createdAt,value
2023-02-14T00:01:51.915Z,103160.38
2023-02-14T00:04:58.394Z,103152.59
2023-02-14T00:08:05.230Z,103149.31
2023-02-14T00:11:10.381Z,103168.31
2023-02-14T00:14:33.554Z,103169.97
2023-02-14T00:17:38.418Z,103171.31
2023-02-14T00:20:43.895Z,103176.34
2023-02-14T00:23:50.540Z,103167.22
2023-02-14T00:26:56.217Z,103175.25
2023-02-14T00:30:03.126Z,103175.31
2023-02-14T00:33:08.408Z,103178.75
2023-02-14T00:36:14.386Z,103179.13
2023-02-14T00:39:21.608Z,103178.59
2023-02-14T00:42:29.142Z,103178.13
2023-02-14T00:45:34.247Z,103187.88
2023-02-14T00:48:39.354Z,103185.53
2023-02-14T00:51:44.587Z,103186.97
2023-02-14T00:54:53.187Z,103190.72
2023-02-14T00:57:58.659Z,103174.72
2023-02-14T01:01:04.232Z,103174.38
2023-02-14T01:04:09.502Z,103185.28
2023-02-14T01:07:14.836Z,103188.50
2023-02-14T01:10:21.884Z,103186.06
2023-02-14T01:13:27.014Z,103182.88
2023-02-14T01:16:33.046Z,103200.44
2023-02-14T01:19:38.750Z,103190.13
2023-02-14T01:22:45.284Z,103185.97
2023-02-14T01:25:55.638Z,103182.19
2023-02-14T01:29:01.206Z,103184.63
2023-02-14T01:32:07.616Z,103186.22
2023-02-14T01:35:13.229Z,103187.66
2023-02-14T01:38:18.183Z,103190.28
2023-02-14T01:41:26.769Z,103203.81
2023-02-14T01:44:57.106Z,103195.34
2023-02-14T01:48:02.836Z,103202.03
2023-02-14T01:51:08.063Z,103207.66
2023-02-14T01:54:14.025Z,103216.78
2023-02-14T01:57:22.033Z,103219.00
2023-02-14T02:00:45.256Z,103222.78
2023-02-14T02:03:52.408Z,103217.31
2023-02-14T02:06:58.869Z,103220.44
2023-02-14T02:10:08.248Z,103215.03
2023-02-14T02:13:19.783Z,103216.41
2023-02-14T02:16:37.195Z,103224.00
2023-02-14T02:20:09.547Z,103236.91
2023-02-14T02:24:03.392Z,103220.31
2023-02-14T02:27:34.801Z,103223.13
2023-02-14T02:31:01.310Z,103229.09
2023-02-14T02:34:38.259Z,103251.84
2023-02-14T02:37:52.303Z,103250.72
2023-02-14T02:41:02.757Z,103232.28
2023-02-14T02:44:17.327Z,103244.78
2023-02-14T02:47:28.549Z,103237.91
2023-02-14T02:50:53.039Z,103253.38
2023-02-14T02:54:04.555Z,103252.66
2023-02-14T02:57:16.537Z,103254.44
2023-02-14T03:00:24.514Z,103249.19
2023-02-14T03:03:48.861Z,103249.09
2023-02-14T03:06:54.818Z,103242.31
2023-02-14T03:10:03.140Z,103248.13
2023-02-14T03:13:42.567Z,103251.72
2023-02-14T03:17:00.360Z,103249.66
2023-02-14T03:20:16.418Z,103264.78
2023-02-14T03:23:25.009Z,103254.41
2023-02-14T03:26:36.667Z,103268.75
2023-02-14T03:29:48.411Z,103270.66
2023-02-14T03:33:01.843Z,103273.66
2023-02-14T03:36:10.282Z,103268.06
2023-02-14T03:39:19.541Z,103275.06
2023-02-14T03:42:28.738Z,103278.28
2023-02-14T03:45:36.092Z,103288.31
2023-02-14T03:48:42.976Z,103287.53
2023-02-14T03:51:51.858Z,103293.81
2023-02-14T03:54:59.219Z,103275.50
2023-02-14T03:58:10.237Z,103277.19
2023-02-14T04:01:18.473Z,103274.66
2023-02-14T04:04:25.658Z,103279.09
2023-02-14T04:07:30.765Z,103273.41
2023-02-14T04:10:36.161Z,103275.41
2023-02-14T04:13:45.285Z,103284.59
2023-02-14T04:17:08.894Z,103266.81
2023-02-14T04:20:14.355Z,103281.06
2023-02-14T04:23:19.507Z,103287.66
2023-02-14T04:26:24.685Z,103281.88
2023-02-14T04:29:31.197Z,103295.19
2023-02-14T04:32:36.058Z,103300.25
2023-02-14T04:35:41.197Z,103295.25
2023-02-14T04:38:46.627Z,103308.63
2023-02-14T04:41:51.735Z,103305.38
2023-02-14T04:44:58.970Z,103315.41
2023-02-14T04:48:05.746Z,103300.56
2023-02-14T04:51:11.198Z,103291.19
2023-02-14T04:54:17.672Z,103304.03
2023-02-14T04:57:22.707Z,103300.56
2023-02-14T05:00:29.011Z,103305.69
2023-02-14T05:03:34.149Z,103308.00
2023-02-14T05:06:41.376Z,103303.63
2023-02-14T05:09:46.125Z,103292.72
2023-02-14T05:12:51.238Z,103295.38
2023-02-14T05:15:58.026Z,103304.31
2023-02-14T05:19:02.930Z,103304.31
2023-02-14T05:22:07.942Z,103302.59
2023-02-14T05:25:13.326Z,103300.25
2023-02-14T05:28:28.312Z,103298.53
2023-02-14T05:31:34.974Z,103283.69
2023-02-14T05:34:40.154Z,103292.91
2023-02-14T05:37:45.555Z,103294.50
2023-02-14T05:40:50.679Z,103306.03
2023-02-14T05:43:55.846Z,103306.09
2023-02-14T05:47:02.258Z,103300.44
2023-02-14T05:50:09.576Z,103300.56
2023-02-14T05:53:15.914Z,103314.03
2023-02-14T05:56:20.864Z,103315.66
2023-02-14T05:59:26.081Z,103316.41
2023-02-14T06:02:32.835Z,103310.41
2023-02-14T06:05:38.858Z,103312.09
2023-02-14T06:08:44.862Z,103319.56
2023-02-14T06:11:49.890Z,103320.28
2023-02-14T06:14:55.223Z,103308.00
2023-02-14T06:18:01.570Z,103317.38
2023-02-14T06:21:07.279Z,103308.16
2023-02-14T06:24:12.354Z,103320.88
2023-02-14T06:27:17.649Z,103325.13
2023-02-14T06:30:23.163Z,103330.25
2023-02-14T06:33:30.251Z,103321.91
2023-02-14T06:36:38.268Z,103333.06
2023-02-14T06:39:43.209Z,103326.84
2023-02-14T06:42:48.418Z,103329.44
2023-02-14T06:45:53.827Z,103326.72
2023-02-14T06:49:00.535Z,103320.19
2023-02-14T06:52:07.376Z,103328.13
2023-02-14T06:55:13.968Z,103322.81
2023-02-14T06:58:19.179Z,103331.78
2023-02-14T07:01:24.312Z,103334.53
2023-02-14T07:04:31.564Z,103338.13
2023-02-14T07:07:36.843Z,103332.53
2023-02-14T07:10:42.383Z,103338.78
2023-02-14T07:13:49.436Z,103342.56
2023-02-14T07:16:54.804Z,103352.13
2023-02-14T07:20:01.518Z,103352.25
2023-02-14T07:23:06.797Z,103351.66
2023-02-14T07:26:18.217Z,103352.56
2023-02-14T07:29:23.525Z,103356.06
2023-02-14T07:32:28.916Z,103348.66
2023-02-14T07:35:37.453Z,103355.56
2023-02-14T07:38:42.827Z,103353.09
2023-02-14T07:41:47.940Z,103353.94
2023-02-14T07:44:57.048Z,103337.16
2023-02-14T07:48:03.165Z,103351.69
2023-02-14T07:51:11.309Z,103339.84
2023-02-14T07:54:16.259Z,103349.22
2023-02-14T07:57:21.484Z,103346.13
2023-02-14T08:00:26.649Z,103357.97
2023-02-14T08:03:31.736Z,103344.66
2023-02-14T08:06:38.707Z,103358.72
2023-02-14T08:09:43.962Z,103352.03
2023-02-14T08:13:01.605Z,103351.59
2023-02-14T08:16:07.693Z,103351.66
2023-02-14T08:19:13.221Z,103357.16
2023-02-14T08:22:19.820Z,103365.44
2023-02-14T08:25:25.130Z,103355.44
2023-02-14T08:28:32.334Z,103357.09
2023-02-14T08:31:37.690Z,103360.63
2023-02-14T08:34:42.820Z,103362.63
2023-02-14T08:37:49.550Z,103353.56
2023-02-14T08:40:54.865Z,103355.34
2023-02-14T08:44:00.318Z,103349.03
2023-02-14T08:47:05.584Z,103353.44
2023-02-14T08:50:15.333Z,103347.78
2023-02-14T08:53:22.235Z,103342.75
2023-02-14T08:56:27.578Z,103352.13
2023-02-14T08:59:33.118Z,103349.69
2023-02-14T09:02:38.278Z,103351.38
2023-02-14T09:05:43.410Z,103351.75
2023-02-14T09:08:50.213Z,103356.09
2023-02-14T09:11:56.318Z,103360.56
2023-02-14T09:15:01.470Z,103354.47
2023-02-14T09:18:06.860Z,103349.22
2023-02-14T09:21:14.716Z,103356.84
2023-02-14T09:24:21.199Z,103343.88
2023-02-14T09:27:26.620Z,103359.84
2023-02-14T09:30:31.761Z,103362.06
2023-02-14T09:33:37.206Z,103366.13
2023-02-14T09:36:59.780Z,103350.56
2023-02-14T09:40:07.322Z,103357.00
2023-02-14T09:43:19.993Z,103358.50
2023-02-14T09:46:26.780Z,103360.91
2023-02-14T09:49:34.514Z,103357.34
2023-02-14T09:52:39.875Z,103357.22
2023-02-14T09:55:57.658Z,103350.63
2023-02-14T09:59:08.259Z,103351.59
2023-02-14T10:02:32.138Z,103350.56
2023-02-14T10:05:39.877Z,103352.53
2023-02-14T10:08:57.237Z,103354.13
2023-02-14T10:12:06.785Z,103345.47
2023-02-14T10:15:17.686Z,103340.78
2023-02-14T10:18:23.670Z,103326.25
2023-02-14T10:21:32.984Z,103337.88
2023-02-14T10:24:40.938Z,103334.44
2023-02-14T10:27:48.799Z,103335.25
2023-02-14T10:31:02.785Z,103329.59
2023-02-14T10:34:16.561Z,103323.84
2023-02-14T10:37:31.909Z,103317.91
2023-02-14T10:41:11.594Z,103324.59
2023-02-14T10:44:28.126Z,103320.53
2023-02-14T10:47:42.330Z,103331.69
2023-02-14T10:50:57.436Z,103329.25
2023-02-14T10:54:13.477Z,103316.78
2023-02-14T10:57:23.581Z,103318.50
2023-02-14T11:00:34.328Z,103310.78
2023-02-14T11:03:54.040Z,103315.91
2023-02-14T11:06:59.494Z,103315.91
2023-02-14T11:10:04.801Z,103315.16
2023-02-14T11:13:33.592Z,103305.88
2023-02-14T11:16:40.259Z,103305.13
2023-02-14T11:19:58.870Z,103302.75
2023-02-14T11:23:20.827Z,103306.16
2023-02-14T11:26:27.923Z,103305.22
2023-02-14T11:29:35.060Z,103302.91
2023-02-14T11:32:42.001Z,103302.09
2023-02-14T11:35:53.220Z,103306.31
2023-02-14T11:39:01.590Z,103298.72
2023-02-14T11:42:07.699Z,103286.09
2023-02-14T11:45:31.781Z,103283.72
2023-02-14T11:48:39.829Z,103283.50
2023-02-14T11:51:48.050Z,103284.47
2023-02-14T11:54:53.407Z,103286.94
2023-02-14T11:57:59.124Z,103278.53
2023-02-14T12:01:04.785Z,103277.66
2023-02-14T12:04:19.128Z,103280.31
2023-02-14T12:07:27.383Z,103276.94
2023-02-14T12:10:33.368Z,103264.63
2023-02-14T12:13:38.741Z,103264.63
2023-02-14T12:16:47.739Z,103270.22
2023-02-14T12:20:00.958Z,103252.69
2023-02-14T12:23:10.356Z,103261.03
2023-02-14T12:26:19.807Z,103260.34
2023-02-14T12:29:28.529Z,103265.44
2023-02-14T12:32:33.798Z,103254.22
2023-02-14T12:35:48.609Z,103247.41
2023-02-14T12:39:01.223Z,103255.53
2023-02-14T12:42:14.810Z,103247.69
2023-02-14T12:45:24.742Z,103233.34
2023-02-14T12:48:40.118Z,103241.69
2023-02-14T12:51:51.342Z,103234.28
2023-02-14T12:55:07.385Z,103236.91
2023-02-14T12:58:24.583Z,103233.66
2023-02-14T13:01:40.496Z,103226.47
2023-02-14T13:05:01.652Z,103231.78
2023-02-14T13:08:25.406Z,103222.53
2023-02-14T13:11:37.961Z,103217.06
2023-02-14T13:14:53.961Z,103216.63
2023-02-14T13:18:03.438Z,103217.16
2023-02-14T13:21:11.116Z,103219.94
2023-02-14T13:24:21.492Z,103217.38
2023-02-14T13:27:29.136Z,103217.00
2023-02-14T13:30:37.177Z,103221.25
2023-02-14T13:33:44.666Z,103220.59
2023-02-14T13:36:50.241Z,103226.19
2023-02-14T13:39:59.234Z,103220.31
2023-02-14T13:43:04.703Z,103229.41
2023-02-14T13:46:11.048Z,103226.00
2023-02-14T13:49:34.746Z,103230.97
2023-02-14T13:52:47.666Z,103217.97
2023-02-14T13:55:55.993Z,103220.44
2023-02-14T13:59:06.822Z,103227.88
2023-02-14T14:02:42.983Z,103222.22
2023-02-14T14:06:02.968Z,103222.69
2023-02-14T14:09:11.968Z,103222.13
2023-02-14T14:12:42.674Z,103210.94
2023-02-14T14:16:21.125Z,103203.38
2023-02-14T14:19:39.890Z,103209.16
2023-02-14T14:22:49.188Z,103204.03
2023-02-14T14:25:54.436Z,103204.22
2023-02-14T14:29:01.576Z,103210.00
2023-02-14T14:32:10.970Z,103206.28
2023-02-14T14:35:21.373Z,103206.38
2023-02-14T14:38:26.834Z,103199.69
2023-02-14T14:41:32.742Z,103195.47
2023-02-14T14:44:44.214Z,103200.53
2023-02-14T14:47:50.304Z,103188.69
2023-02-14T14:50:55.355Z,103192.13
2023-02-14T14:54:03.422Z,103184.25
2023-02-14T14:57:09.063Z,103193.16
2023-02-14T15:00:27.296Z,103190.06
2023-02-14T15:03:32.618Z,103189.41
2023-02-14T15:06:38.294Z,103184.34
2023-02-14T15:09:44.634Z,103176.69
2023-02-14T15:13:06.103Z,103177.94
2023-02-14T15:16:16.390Z,103178.50
2023-02-14T15:19:26.846Z,103173.38
2023-02-14T15:22:36.880Z,103171.72
2023-02-14T15:25:46.091Z,103169.63
2023-02-14T15:28:57.485Z,103170.47
2023-02-14T15:32:04.553Z,103173.44
2023-02-14T15:35:11.665Z,103171.72
2023-02-14T15:38:17.392Z,103173.06
2023-02-14T15:41:24.425Z,103177.69
2023-02-14T15:44:29.704Z,103172.72
2023-02-14T15:47:36.564Z,103182.56
2023-02-14T15:50:47.379Z,103184.03
2023-02-14T15:53:54.302Z,103181.22
2023-02-14T15:56:59.920Z,103188.69
2023-02-14T16:00:11.354Z,103191.03
2023-02-14T16:03:23.041Z,103185.41
2023-02-14T16:06:36.978Z,103190.09
2023-02-14T16:09:42.669Z,103178.88
2023-02-14T16:12:57.719Z,103188.31
2023-02-14T16:16:04.910Z,103170.69
2023-02-14T16:19:33.960Z,103175.91
2023-02-14T16:22:39.465Z,103179.00
2023-02-14T16:25:44.691Z,103182.06
2023-02-14T16:28:49.803Z,103179.47
2023-02-14T16:32:14.572Z,103175.50
2023-02-14T16:35:23.256Z,103183.13
2023-02-14T16:38:28.491Z,103173.69
2023-02-14T16:41:36.166Z,103176.53
2023-02-14T16:44:40.961Z,103185.22
2023-02-14T16:47:48.533Z,103179.66
2023-02-14T16:50:55.168Z,103176.19
2023-02-14T16:54:02.536Z,103182.75
2023-02-14T16:57:07.750Z,103182.75
2023-02-14T17:00:16.882Z,103191.69
2023-02-14T17:03:22.298Z,103181.84
2023-02-14T17:06:29.913Z,103182.28
2023-02-14T17:09:39.480Z,103180.28
2023-02-14T17:12:46.358Z,103176.94
2023-02-14T17:15:52.562Z,103180.13
2023-02-14T17:18:57.904Z,103180.81
2023-02-14T17:22:04.989Z,103191.63
2023-02-14T17:25:11.225Z,103182.75
2023-02-14T17:28:16.314Z,103191.91
2023-02-14T17:31:21.732Z,103195.44
2023-02-14T17:34:27.058Z,103184.25
2023-02-14T17:37:34.625Z,103200.94
2023-02-14T17:40:40.535Z,103187.31
2023-02-14T17:43:45.660Z,103191.56
2023-02-14T17:46:50.800Z,103201.34
2023-02-14T17:49:56.508Z,103196.88
2023-02-14T17:53:03.001Z,103206.00
2023-02-14T17:56:09.411Z,103200.72
2023-02-14T17:59:14.537Z,103203.91
2023-02-14T18:02:19.808Z,103200.88
2023-02-14T18:05:25.006Z,103204.91
2023-02-14T18:08:35.844Z,103203.13
2023-02-14T18:11:42.296Z,103212.88
2023-02-14T18:14:47.516Z,103208.78
2023-02-14T18:17:52.726Z,103197.03
2023-02-14T18:20:59.693Z,103196.97
2023-02-14T18:24:06.820Z,103204.03
2023-02-14T18:27:15.916Z,103202.88
2023-02-14T18:30:21.180Z,103205.22
2023-02-14T18:33:26.486Z,103214.44
2023-02-14T18:36:35.141Z,103222.28
2023-02-14T18:39:47.032Z,103217.91
2023-02-14T18:42:52.194Z,103217.41
2023-02-14T18:45:57.326Z,103204.94
2023-02-14T18:49:02.689Z,103213.50
2023-02-14T18:52:07.814Z,103217.97
2023-02-14T18:55:16.849Z,103201.47
2023-02-14T18:58:22.098Z,103202.84
2023-02-14T19:01:30.563Z,103206.59
2023-02-14T19:04:35.834Z,103201.31
2023-02-14T19:07:41.034Z,103202.94
2023-02-14T19:10:47.361Z,103203.47
2023-02-14T19:13:53.934Z,103207.94
2023-02-14T19:16:58.828Z,103204.88
2023-02-14T19:20:08.542Z,103210.91
2023-02-14T19:23:15.074Z,103205.50
2023-02-14T19:26:23.300Z,103206.44
2023-02-14T19:29:28.351Z,103209.88
2023-02-14T19:32:33.477Z,103206.75
2023-02-14T19:35:39.064Z,103208.88
2023-02-14T19:38:45.253Z,103203.84
2023-02-14T19:41:52.319Z,103201.91
2023-02-14T19:44:57.531Z,103193.50
2023-02-14T19:48:03.708Z,103185.25
2023-02-14T19:51:09.087Z,103192.28
2023-02-14T19:54:15.534Z,103186.03
2023-02-14T19:57:22.223Z,103181.06
2023-02-14T20:00:27.322Z,103188.91
2023-02-14T20:03:32.455Z,103183.19
2023-02-14T20:06:38.318Z,103164.22
2023-02-14T20:09:44.558Z,103165.59
2023-02-14T20:12:54.054Z,103169.88
2023-02-14T20:15:59.247Z,103164.34
2023-02-14T20:19:05.209Z,103164.47
2023-02-14T20:22:10.037Z,103155.97
2023-02-14T20:25:15.721Z,103172.03
2023-02-14T20:28:24.298Z,103169.47
2023-02-14T20:31:30.199Z,103164.63
2023-02-14T20:34:36.774Z,103170.13
2023-02-14T20:37:42.046Z,103169.66
2023-02-14T20:40:47.173Z,103172.78
2023-02-14T20:43:53.760Z,103168.88
2023-02-14T20:46:59.370Z,103166.41
2023-02-14T20:50:04.236Z,103163.78
2023-02-14T20:53:12.349Z,103163.78
2023-02-14T20:56:18.255Z,103158.97
2023-02-14T20:59:27.213Z,103150.25
2023-02-14T21:02:32.492Z,103150.34
2023-02-14T21:05:37.668Z,103150.00
2023-02-14T21:08:43.739Z,103158.03
2023-02-14T21:11:49.647Z,103162.56
2023-02-14T21:14:56.119Z,103157.50
2023-02-14T21:18:01.321Z,103161.50
2023-02-14T21:21:07.910Z,103155.97
2023-02-14T21:24:14.628Z,103166.09
2023-02-14T21:27:19.984Z,103165.28
2023-02-14T21:30:30.921Z,103166.09
2023-02-14T21:33:36.397Z,103160.09
2023-02-14T21:36:41.525Z,103161.88
2023-02-14T21:39:46.517Z,103165.28
2023-02-14T21:42:52.305Z,103161.28
2023-02-14T21:46:02.194Z,103159.88
2023-02-14T21:49:25.377Z,103152.97
2023-02-14T21:52:31.258Z,103139.63
2023-02-14T21:55:38.546Z,103160.69
2023-02-14T21:58:43.733Z,103157.41
2023-02-14T22:01:50.242Z,103168.31
2023-02-14T22:04:55.635Z,103155.75
2023-02-14T22:08:00.693Z,103150.91
2023-02-14T22:11:07.514Z,103161.75
2023-02-14T22:14:14.711Z,103150.00
2023-02-14T22:17:21.262Z,103144.28
2023-02-14T22:20:26.340Z,103144.88
2023-02-14T22:23:31.960Z,103141.56
2023-02-14T22:26:39.530Z,103136.00
2023-02-14T22:29:44.668Z,103135.81
2023-02-14T22:32:51.172Z,103129.41
2023-02-14T22:35:56.941Z,103136.13
2023-02-14T22:39:02.319Z,103133.34
2023-02-14T22:42:08.023Z,103124.38
2023-02-14T22:45:13.055Z,103115.94
2023-02-14T22:48:20.502Z,103122.03
2023-02-14T22:51:27.733Z,103111.94
2023-02-14T22:54:32.826Z,103117.91
2023-02-14T22:57:37.865Z,103115.44
2023-02-14T23:00:43.038Z,103099.53
2023-02-14T23:03:50.041Z,103116.50
2023-02-14T23:06:55.800Z,103098.63
2023-02-14T23:10:00.839Z,103088.53
2023-02-14T23:13:23.466Z,103095.28
2023-02-14T23:16:45.904Z,103083.66
2023-02-14T23:20:09.928Z,103087.09
2023-02-14T23:23:15.135Z,103079.59
2023-02-14T23:26:21.559Z,103079.66
2023-02-14T23:29:26.710Z,103073.72
2023-02-14T23:32:31.845Z,103076.31
2023-02-14T23:35:39.273Z,103081.38
2023-02-14T23:38:44.452Z,103079.72
2023-02-14T23:41:49.388Z,103067.31
2023-02-14T23:44:54.869Z,103063.09
2023-02-14T23:48:03.781Z,103068.97
2023-02-14T23:51:10.364Z,103063.00
2023-02-14T23:54:16.195Z,103073.97
2023-02-14T23:57:21.289Z,103053.81
